Private Wetterstation Wechselburg
Wetterdaten: Freitag, 28.06.2013
Datum Zeit Temp. +2m Bodentemp. Temp.+5cm Temp. Wind Windchill X Diff Temp. Feuchte +2m Feuchte +5cm Sonnenschein Luftdruck Regen Wind Richtung Richtung Sonnenschein UV Taupunkt Windchill Windben
28.06.2013 00:00 10,1 C 22,6 C 11,5 C 10,4 C 10,4 C 0,3 C 87 % 85 % 0 % 1019,8 hPa 0,0 l/m 0,0 km/h (0 Bft) SW 225 0 min 0,0 UV-I 8,0 C 10,4 C 0,0 km/h (0 Bft)
28.06.2013 00:05 10,0 C 22,6 C 11,5 C 10,4 C 10,4 C 0,4 C 86 % 85 % 0 % 1019,8 hPa 0,0 l/m 0,0 km/h (0 Bft) SW 225 0 min 0,0 UV-I 7,8 C 10,4 C 0,0 km/h (0 Bft)
28.06.2013 00:10 10,1 C 22,5 C 11,5 C 10,3 C 10,3 C 0,2 C 87 % 85 % 0 % 1019,8 hPa 0,0 l/m 0,0 km/h (0 Bft) SW 225 0 min 0,0 UV-I 8,0 C 10,3 C 0,0 km/h (0 Bft)
28.06.2013 00:15 10,0 C 22,5 C 11,5 C 10,3 C 10,3 C 0,3 C 87 % 85 % 0 % 1020,1 hPa 0,0 l/m 0,0 km/h (0 Bft) W-SW 247 0 min 0,0 UV-I 7,9 C 10,3 C 0,0 km/h (0 Bft)
28.06.2013 00:20 10,0 C 22,5 C 11,5 C 10,3 C 10,3 C 0,3 C 87 % 85 % 0 % 1020,1 hPa 0,0 l/m 0,0 km/h (0 Bft) S-SW 202 0 min 0,0 UV-I 7,9 C 10,3 C 0,0 km/h (0 Bft)
28.06.2013 00:25 9,9 C 22,5 C 11,4 C 10,3 C 10,3 C 0,4 C 87 % 85 % 0 % 1020,1 hPa 0,0 l/m 0,0 km/h (0 Bft) SW 225 0 min 0,0 UV-I 7,8 C 10,3 C 0,0 km/h (0 Bft)
28.06.2013 00:30 9,9 C 22,6 C 11,4 C 10,3 C 10,3 C 0,4 C 87 % 85 % 0 % 1020,1 hPa 0,0 l/m 0,0 km/h (0 Bft) S-SW 202 0 min 0,0 UV-I 7,8 C 10,3 C 0,0 km/h (0 Bft)
28.06.2013 00:35 9,8 C 22,6 C 11,4 C 10,3 C 10,3 C 0,5 C 87 % 85 % 0 % 1019,4 hPa 0,0 l/m 0,0 km/h (0 Bft) S-SW 202 0 min 0,0 UV-I 7,7 C 10,3 C 0,0 km/h (0 Bft)
28.06.2013 00:41 9,9 C 22,6 C 11,3 C 10,2 C 10,2 C 0,3 C 87 % 85 % 0 % 1019,4 hPa 0,0 l/m 0,0 km/h (0 Bft) N 0 0 min 0,0 UV-I 7,8 C 10,2 C 0,0 km/h (0 Bft)
28.06.2013 00:57 9,7 C 22,6 C 11,2 C 10,0 C 10,0 C 0,3 C 87 % 85 % 0 % 1018,8 hPa 0,0 l/m 0,0 km/h (0 Bft) O-NO 67 0 min 0,0 UV-I 7,6 C 10,0 C 0,0 km/h (0 Bft)
28.06.2013 00:58 9,7 C 22,6 C 11,2 C 10,0 C 10,0 C 0,3 C 87 % 85 % 0 % 1018,8 hPa 0,0 l/m 0,0 km/h (0 Bft) O-NO 67 0 min 0,0 UV-I 7,6 C 10,0 C 0,0 km/h (0 Bft)
28.06.2013 01:05 9,6 C 22,7 C 11,2 C 9,9 C 9,9 C 0,3 C 87 % 85 % 0 % 1018,8 hPa 0,0 l/m 0,0 km/h (0 Bft) O-NO 67 0 min 0,0 UV-I 7,5 C 9,9 C 0,0 km/h (0 Bft)
28.06.2013 01:10 9,6 C 22,7 C 11,1 C 10,0 C 10,0 C 0,4 C 88 % 86 % 0 % 1018,8 hPa 0,0 l/m 0,0 km/h (0 Bft) O 90 0 min 0,0 UV-I 7,7 C 10,0 C 0,0 km/h (0 Bft)
28.06.2013 01:15 9,6 C 22,6 C 11,1 C 9,9 C 9,9 C 0,3 C 88 % 86 % 0 % 1019,2 hPa 0,0 l/m 0,0 km/h (0 Bft) O-NO 67 0 min 0,0 UV-I 7,7 C 9,9 C 0,0 km/h (0 Bft)
28.06.2013 01:20 9,5 C 22,6 C 11,0 C 9,7 C 9,7 C 0,2 C 88 % 86 % 0 % 1019,2 hPa 0,0 l/m 0,0 km/h (0 Bft) N-NW 337 0 min 0,0 UV-I 7,6 C 9,7 C 0,0 km/h (0 Bft)
28.06.2013 01:25 9,5 C 22,6 C 10,9 C 9,5 C 9,5 C 0,0 C 88 % 86 % 0 % 1019,2 hPa 0,0 l/m 0,0 km/h (0 Bft) NO 45 0 min 0,0 UV-I 7,6 C 9,5 C 0,0 km/h (0 Bft)
28.06.2013 01:30 9,5 C 22,6 C 10,8 C 9,5 C 9,4 C 0,0 C 88 % 86 % 0 % 1019,2 hPa 0,0 l/m 0,0 km/h (0 Bft) O-NO 67 0 min 0,0 UV-I 7,6 C 9,4 C 0,0 km/h (0 Bft)
28.06.2013 01:35 9,3 C 22,6 C 10,8 C 9,3 C 9,2 C 0,0 C 87 % 86 % 0 % 1019,1 hPa 0,0 l/m 0,0 km/h (0 Bft) O-NO 67 0 min 0,0 UV-I 7,2 C 9,2 C 0,0 km/h (0 Bft)
28.06.2013 01:40 9,3 C 22,6 C 10,7 C 9,2 C 9,1 C 0,0 C 87 % 86 % 0 % 1019,1 hPa 0,0 l/m 0,0 km/h (0 Bft) NO 45 0 min 0,0 UV-I 7,2 C 9,1 C 0,0 km/h (0 Bft)
28.06.2013 01:45 9,2 C 22,6 C 10,7 C 9,1 C 9,0 C 0,0 C 87 % 86 % 0 % 1019,1 hPa 0,0 l/m 0,0 km/h (0 Bft) NO 45 0 min 0,0 UV-I 7,2 C 9,0 C 0,0 km/h (0 Bft)
28.06.2013 01:50 9,1 C 22,6 C 10,4 C 9,0 C 8,9 C 0,0 C 87 % 86 % 0 % 1019,1 hPa 0,0 l/m 0,0 km/h (0 Bft) N-NO 22 0 min 0,0 UV-I 7,1 C 8,9 C 0,0 km/h (0 Bft)
28.06.2013 01:55 9,0 C 22,6 C 10,4 C 8,9 C 8,8 C 0,0 C 87 % 86 % 0 % 1018,9 hPa 0,0 l/m 0,0 km/h (0 Bft) O-NO 67 0 min 0,0 UV-I 7,0 C 8,8 C 0,0 km/h (0 Bft)
28.06.2013 02:00 8,9 C 22,6 C 10,4 C 8,9 C 8,8 C 0,0 C 88 % 86 % 0 % 1018,9 hPa 0,0 l/m 0,0 km/h (0 Bft) O-NO 67 0 min 0,0 UV-I 7,0 C 8,8 C 0,0 km/h (0 Bft)
28.06.2013 02:05 8,9 C 22,6 C 10,4 C 8,8 C 8,5 C 0,0 C 88 % 86 % 0 % 1018,9 hPa 0,0 l/m 0,0 km/h (0 Bft) SW 225 0 min 0,0 UV-I 7,0 C 8,5 C 0,0 km/h (0 Bft)
28.06.2013 02:10 8,7 C 22,6 C 10,2 C 8,6 C 8,5 C 0,0 C 88 % 85 % 0 % 1018,9 hPa 0,0 l/m 0,0 km/h (0 Bft) S-SO 157 0 min 0,0 UV-I 6,8 C 8,5 C 0,0 km/h (0 Bft)
28.06.2013 02:15 8,7 C 22,6 C 10,2 C 8,6 C 8,4 C 0,0 C 88 % 85 % 0 % 1018,2 hPa 0,0 l/m 0,0 km/h (0 Bft) O-NO 67 0 min 0,0 UV-I 6,8 C 8,4 C 0,0 km/h (0 Bft)
28.06.2013 02:20 8,6 C 22,6 C 10,1 C 8,5 C 8,4 C 0,0 C 88 % 85 % 0 % 1018,2 hPa 0,0 l/m 0,0 km/h (0 Bft) O-NO 67 0 min 0,0 UV-I 6,7 C 8,4 C 0,0 km/h (0 Bft)
28.06.2013 02:25 8,5 C 22,6 C 10,0 C 8,5 C 8,4 C 0,0 C 88 % 86 % 0 % 1018,2 hPa 0,0 l/m 0,0 km/h (0 Bft) O-NO 67 0 min 0,0 UV-I 6,6 C 8,4 C 0,0 km/h (0 Bft)
28.06.2013 02:30 8,5 C 22,6 C 10,0 C 8,4 C 8,2 C 0,0 C 88 % 86 % 0 % 1018,2 hPa 0,0 l/m 0,0 km/h (0 Bft) NW 315 0 min 0,0 UV-I 6,6 C 8,2 C 0,0 km/h (0 Bft)
28.06.2013 02:35 8,3 C 22,5 C 9,9 C 8,2 C 8,1 C 0,0 C 88 % 86 % 0 % 1018,9 hPa 0,0 l/m 0,0 km/h (0 Bft) O-SO 112 0 min 0,0 UV-I 6,4 C 8,1 C 0,0 km/h (0 Bft)
28.06.2013 02:40 8,3 C 22,5 C 9,8 C 8,2 C 8,0 C 0,0 C 88 % 86 % 0 % 1018,9 hPa 0,0 l/m 0,0 km/h (0 Bft) O-SO 112 0 min 0,0 UV-I 6,4 C 8,0 C 0,0 km/h (0 Bft)
28.06.2013 02:45 8,1 C 22,5 C 9,7 C 8,0 C 7,9 C 0,0 C 88 % 86 % 0 % 1018,9 hPa 0,0 l/m 0,0 km/h (0 Bft) N 360 0 min 0,0 UV-I 6,2 C 7,9 C 0,0 km/h (0 Bft)
28.06.2013 02:50 8,1 C 22,5 C 9,6 C 8,0 C 7,8 C 0,0 C 88 % 86 % 0 % 1018,9 hPa 0,0 l/m 0,0 km/h (0 Bft) N-NO 22 0 min 0,0 UV-I 6,2 C 7,8 C 0,0 km/h (0 Bft)
28.06.2013 02:55 8,0 C 22,5 C 9,7 C 7,9 C 7,8 C 0,0 C 88 % 86 % 0 % 1018,6 hPa 0,0 l/m 0,0 km/h (0 Bft) O 90 0 min 0,0 UV-I 6,1 C 7,8 C 0,0 km/h (0 Bft)
28.06.2013 03:00 7,9 C 22,5 C 9,6 C 7,9 C 7,8 C 0,0 C 88 % 86 % 0 % 1018,6 hPa 0,0 l/m 0,0 km/h (0 Bft) S-SW 202 0 min 0,0 UV-I 6,0 C 7,8 C 0,0 km/h (0 Bft)
28.06.2013 03:05 7,9 C 22,5 C 9,7 C 7,9 C 7,8 C 0,0 C 89 % 86 % 0 % 1018,6 hPa 0,0 l/m 0,0 km/h (0 Bft) SW 225 0 min 0,0 UV-I 6,2 C 7,8 C 0,0 km/h (0 Bft)
28.06.2013 03:10 7,9 C 22,5 C 9,6 C 7,9 C 7,8 C 0,0 C 89 % 86 % 0 % 1018,6 hPa 0,0 l/m 0,0 km/h (0 Bft) W 270 0 min 0,0 UV-I 6,2 C 7,8 C 0,0 km/h (0 Bft)
28.06.2013 03:15 7,9 C 22,5 C 9,5 C 7,9 C 7,8 C 0,0 C 89 % 86 % 0 % 1018,9 hPa 0,0 l/m 0,0 km/h (0 Bft) S-SW 202 0 min 0,0 UV-I 6,2 C 7,8 C 0,0 km/h (0 Bft)
28.06.2013 03:20 7,7 C 22,5 C 9,7 C 7,8 C 7,8 C 0,1 C 89 % 86 % 0 % 1018,9 hPa 0,0 l/m 0,2 km/h (0 Bft) W-SW 247 0 min 0,0 UV-I 6,0 C 7,8 C 0,0 km/h (0 Bft)
28.06.2013 03:25 7,7 C 22,5 C 9,5 C 7,8 C 7,8 C 0,1 C 89 % 86 % 0 % 1018,9 hPa 0,0 l/m 0,2 km/h (0 Bft) O 90 0 min 0,0 UV-I 6,0 C 7,8 C 0,0 km/h (0 Bft)
28.06.2013 03:30 7,6 C 22,5 C 9,5 C 7,9 C 7,9 C 0,3 C 88 % 86 % 0 % 1018,9 hPa 0,0 l/m 0,0 km/h (0 Bft) W-NW 292 0 min 0,0 UV-I 5,7 C 7,9 C 0,0 km/h (0 Bft)
28.06.2013 03:35 7,6 C 22,5 C 9,5 C 7,9 C 7,9 C 0,3 C 88 % 86 % 0 % 1018,3 hPa 0,0 l/m 0,0 km/h (0 Bft) W 270 0 min 0,0 UV-I 5,7 C 7,9 C 0,0 km/h (0 Bft)
28.06.2013 03:40 7,6 C 22,5 C 9,4 C 8,0 C 8,0 C 0,4 C 89 % 86 % 0 % 1018,3 hPa 0,0 l/m 0,0 km/h (0 Bft) SW 225 0 min 0,0 UV-I 5,9 C 8,0 C 0,0 km/h (0 Bft)
28.06.2013 03:45 7,7 C 22,5 C 9,5 C 8,0 C 8,0 C 0,3 C 89 % 86 % 0 % 1018,3 hPa 0,0 l/m 0,3 km/h (0 Bft) SW 225 0 min 0,0 UV-I 6,0 C 8,0 C 1,8 km/h (1 Bft)
28.06.2013 03:50 7,6 C 22,5 C 9,6 C 8,1 C 8,1 C 0,5 C 89 % 86 % 0 % 1018,3 hPa 0,0 l/m 0,3 km/h (0 Bft) W-SW 247 0 min 0,0 UV-I 5,9 C 8,1 C 2,4 km/h (1 Bft)
28.06.2013 03:55 7,7 C 22,5 C 9,5 C 8,1 C 8,1 C 0,4 C 89 % 86 % 0 % 1018,7 hPa 0,0 l/m 0,2 km/h (0 Bft) NW 315 0 min 0,0 UV-I 6,0 C 8,1 C 0,0 km/h (0 Bft)
28.06.2013 04:00 7,7 C 22,5 C 9,5 C 8,2 C 8,2 C 0,5 C 89 % 86 % 0 % 1018,7 hPa 0,0 l/m 0,0 km/h (0 Bft) N-NW 337 0 min 0,0 UV-I 6,0 C 8,2 C 0,0 km/h (0 Bft)
28.06.2013 04:05 7,6 C 22,5 C 9,5 C 8,1 C 8,1 C 0,5 C 89 % 86 % 0 % 1018,7 hPa 0,0 l/m 0,0 km/h (0 Bft) SW 225 0 min 0,0 UV-I 5,9 C 8,1 C 0,0 km/h (0 Bft)
28.06.2013 04:10 7,7 C 22,5 C 9,5 C 8,1 C 8,1 C 0,4 C 89 % 86 % 0 % 1018,7 hPa 0,0 l/m 0,0 km/h (0 Bft) NW 315 0 min 0,0 UV-I 6,0 C 8,1 C 0,0 km/h (0 Bft)
28.06.2013 04:15 7,6 C 22,5 C 9,5 C 8,1 C 8,1 C 0,5 C 89 % 86 % 0 % 1018,4 hPa 0,0 l/m 0,0 km/h (0 Bft) W-SW 247 0 min 0,0 UV-I 5,9 C 8,1 C 0,0 km/h (0 Bft)
28.06.2013 04:20 7,6 C 22,5 C 9,6 C 8,1 C 8,1 C 0,5 C 89 % 86 % 0 % 1018,4 hPa 0,0 l/m 0,0 km/h (0 Bft) W-SW 247 0 min 0,0 UV-I 5,9 C 8,1 C 0,0 km/h (0 Bft)
28.06.2013 04:25 7,6 C 22,5 C 9,6 C 8,1 C 8,1 C 0,5 C 90 % 86 % 0 % 1018,4 hPa 0,0 l/m 0,0 km/h (0 Bft) W-SW 247 0 min 0,0 UV-I 6,1 C 8,1 C 0,0 km/h (0 Bft)
28.06.2013 04:30 7,7 C 22,5 C 9,5 C 8,0 C 8,0 C 0,3 C 89 % 86 % 0 % 1018,4 hPa 0,0 l/m 0,0 km/h (0 Bft) W-SW 247 0 min 0,0 UV-I 6,0 C 8,0 C 0,0 km/h (0 Bft)
28.06.2013 04:35 7,6 C 22,5 C 9,5 C 8,0 C 8,0 C 0,4 C 90 % 86 % 0 % 1018,8 hPa 0,0 l/m 0,0 km/h (0 Bft) O-SO 112 0 min 0,0 UV-I 6,1 C 8,0 C 0,0 km/h (0 Bft)
28.06.2013 04:40 7,6 C 22,5 C 9,4 C 8,0 C 8,0 C 0,4 C 90 % 86 % 0 % 1018,8 hPa 0,0 l/m 0,0 km/h (0 Bft) O-NO 67 0 min 0,0 UV-I 6,1 C 8,0 C 0,0 km/h (0 Bft)
28.06.2013 04:45 7,6 C 22,5 C 9,5 C 7,9 C 7,9 C 0,3 C 90 % 86 % 0 % 1018,8 hPa 0,0 l/m 0,0 km/h (0 Bft) O-NO 67 0 min 0,0 UV-I 6,1 C 7,9 C 0,0 km/h (0 Bft)
28.06.2013 04:50 7,5 C 22,5 C 9,4 C 7,9 C 7,9 C 0,4 C 90 % 86 % 0 % 1018,8 hPa 0,0 l/m 0,0 km/h (0 Bft) W-NW 292 0 min 0,0 UV-I 6,0 C 7,9 C 0,0 km/h (0 Bft)
28.06.2013 04:55 7,6 C 22,5 C 9,5 C 8,0 C 8,0 C 0,4 C 90 % 86 % 0 % 1018,5 hPa 0,0 l/m 0,0 km/h (0 Bft) W-SW 247 0 min 0,0 UV-I 6,1 C 8,0 C 0,0 km/h (0 Bft)
28.06.2013 05:00 7,6 C 22,4 C 9,3 C 8,0 C 8,0 C 0,4 C 90 % 86 % 0 % 1018,5 hPa 0,0 l/m 0,0 km/h (0 Bft) NW 315 0 min 0,0 UV-I 6,1 C 8,0 C 0,0 km/h (0 Bft)
28.06.2013 05:05 7,5 C 22,4 C 9,4 C 7,9 C 7,9 C 0,4 C 90 % 86 % 0 % 1018,5 hPa 0,0 l/m 0,0 km/h (0 Bft) N-NW 337 0 min 0,0 UV-I 6,0 C 7,9 C 0,0 km/h (0 Bft)
28.06.2013 05:10 7,5 C 22,4 C 9,5 C 8,0 C 8,0 C 0,5 C 90 % 87 % 0 % 1018,5 hPa 0,0 l/m 0,0 km/h (0 Bft) NW 315 0 min 0,0 UV-I 6,0 C 8,0 C 0,0 km/h (0 Bft)
28.06.2013 05:15 7,5 C 22,4 C 9,4 C 8,0 C 8,0 C 0,5 C 90 % 87 % 13 % 1018,6 hPa 0,0 l/m 0,0 km/h (0 Bft) W 270 5 min 0,0 UV-I 6,0 C 8,0 C 0,0 km/h (0 Bft)
28.06.2013 05:20 7,6 C 22,4 C 9,5 C 8,0 C 8,0 C 0,4 C 90 % 87 % 11 % 1018,6 hPa 0,0 l/m 0,0 km/h (0 Bft) N-NW 337 5 min 0,0 UV-I 6,1 C 8,0 C 0,0 km/h (0 Bft)
28.06.2013 05:25 7,6 C 22,4 C 9,4 C 8,0 C 8,0 C 0,4 C 90 % 87 % 11 % 1018,6 hPa 0,0 l/m 0,0 km/h (0 Bft) N-NW 337 0 min 0,0 UV-I 6,1 C 8,0 C 0,0 km/h (0 Bft)
28.06.2013 05:30 7,6 C 22,4 C 9,4 C 8,0 C 8,0 C 0,4 C 90 % 87 % 11 % 1018,6 hPa 0,0 l/m 0,0 km/h (0 Bft) NW 315 0 min 0,0 UV-I 6,1 C 8,0 C 0,0 km/h (0 Bft)
28.06.2013 05:35 7,6 C 22,4 C 9,5 C 8,1 C 8,1 C 0,5 C 90 % 87 % 13 % 1018,4 hPa 0,0 l/m 0,0 km/h (0 Bft) W-SW 247 0 min 0,0 UV-I 6,1 C 8,1 C 0,0 km/h (0 Bft)
28.06.2013 05:40 7,6 C 22,4 C 9,6 C 8,2 C 8,2 C 0,6 C 90 % 87 % 16 % 1018,4 hPa 0,0 l/m 0,0 km/h (0 Bft) W 270 0 min 0,0 UV-I 6,1 C 8,2 C 0,0 km/h (0 Bft)
28.06.2013 05:45 7,7 C 22,4 C 9,6 C 8,2 C 8,2 C 0,5 C 90 % 87 % 13 % 1018,4 hPa 0,0 l/m 0,0 km/h (0 Bft) SW 225 0 min 0,0 UV-I 6,2 C 8,2 C 0,0 km/h (0 Bft)
28.06.2013 05:50 7,6 C 22,4 C 9,7 C 8,3 C 8,3 C 0,7 C 90 % 87 % 18 % 1018,4 hPa 0,0 l/m 0,0 km/h (0 Bft) W 270 0 min 0,0 UV-I 6,1 C 8,3 C 0,0 km/h (0 Bft)
28.06.2013 05:55 7,6 C 22,4 C 9,7 C 8,4 C 8,4 C 0,8 C 90 % 87 % 21 % 1018,5 hPa 0,0 l/m 0,0 km/h (0 Bft) S-SW 202 0 min 0,0 UV-I 6,1 C 8,4 C 0,0 km/h (0 Bft)
28.06.2013 06:00 7,6 C 22,4 C 9,6 C 8,4 C 8,4 C 0,8 C 90 % 87 % 21 % 1018,5 hPa 0,0 l/m 0,0 km/h (0 Bft) W-SW 247 0 min 0,0 UV-I 6,1 C 8,4 C 0,0 km/h (0 Bft)
28.06.2013 06:05 7,6 C 22,4 C 9,6 C 8,5 C 8,5 C 0,9 C 90 % 87 % 24 % 1018,5 hPa 0,0 l/m 0,0 km/h (0 Bft) W 270 0 min 0,0 UV-I 6,1 C 8,5 C 0,0 km/h (0 Bft)
28.06.2013 06:10 7,7 C 22,4 C 9,6 C 8,5 C 8,5 C 0,8 C 91 % 87 % 21 % 1018,5 hPa 0,0 l/m 0,0 km/h (0 Bft) NO 45 0 min 0,1 UV-I 6,3 C 8,5 C 0,0 km/h (0 Bft)
28.06.2013 06:15 7,9 C 22,4 C 9,6 C 8,6 C 8,6 C 0,7 C 91 % 87 % 18 % 1018,7 hPa 0,0 l/m 0,0 km/h (0 Bft) O-NO 67 0 min 0,1 UV-I 6,5 C 8,6 C 0,0 km/h (0 Bft)
28.06.2013 06:20 7,9 C 22,4 C 9,7 C 8,8 C 8,8 C 0,9 C 91 % 87 % 24 % 1018,7 hPa 0,0 l/m 0,0 km/h (0 Bft) NO 45 0 min 0,1 UV-I 6,5 C 8,8 C 0,0 km/h (0 Bft)
28.06.2013 06:25 8,0 C 22,4 C 9,7 C 8,9 C 8,9 C 0,9 C 91 % 87 % 24 % 1018,7 hPa 0,0 l/m 0,0 km/h (0 Bft) SW 225 0 min 0,1 UV-I 6,6 C 8,9 C 0,0 km/h (0 Bft)
28.06.2013 06:30 8,0 C 22,4 C 9,9 C 9,0 C 9,0 C 1,0 C 91 % 87 % 26 % 1018,7 hPa 0,0 l/m 0,0 km/h (0 Bft) S 180 0 min 0,2 UV-I 6,6 C 9,0 C 0,0 km/h (0 Bft)
28.06.2013 06:35 8,1 C 22,3 C 10,0 C 9,1 C 9,1 C 1,0 C 91 % 87 % 26 % 1018,6 hPa 0,0 l/m 0,0 km/h (0 Bft) W 270 0 min 0,2 UV-I 6,7 C 9,1 C 0,0 km/h (0 Bft)
28.06.2013 06:41 8,2 C 22,3 C 10,1 C 9,3 C 9,3 C 1,1 C 91 % 87 % 29 % 1018,6 hPa 0,0 l/m 0,2 km/h (0 Bft) N 0 0 min 0,2 UV-I 6,8 C 9,3 C 0,0 km/h (0 Bft)
28.06.2013 07:00 8,4 C 22,3 C 10,3 C 9,3 C 9,3 C 0,9 C 91 % 87 % 24 % 1018,7 hPa 0,0 l/m 0,2 km/h (0 Bft) W-SW 247 0 min 0,3 UV-I 7,0 C 9,3 C 0,0 km/h (0 Bft)
28.06.2013 07:05 8,4 C 22,3 C 10,3 C 9,4 C 9,4 C 1,0 C 91 % 87 % 26 % 1018,7 hPa 0,0 l/m 0,2 km/h (0 Bft) O 90 0 min 0,3 UV-I 7,0 C 9,4 C 0,0 km/h (0 Bft)
28.06.2013 07:10 8,4 C 22,2 C 10,3 C 9,5 C 9,5 C 1,1 C 91 % 87 % 29 % 1018,7 hPa 0,0 l/m 0,0 km/h (0 Bft) O 90 0 min 0,3 UV-I 7,0 C 9,5 C 0,0 km/h (0 Bft)
28.06.2013 07:15 8,5 C 22,2 C 10,4 C 9,7 C 9,7 C 1,2 C 91 % 87 % 32 % 1018,6 hPa 0,0 l/m 0,0 km/h (0 Bft) O 90 0 min 0,3 UV-I 7,1 C 9,7 C 0,0 km/h (0 Bft)
28.06.2013 07:20 8,7 C 22,2 C 10,5 C 9,9 C 9,9 C 1,2 C 91 % 87 % 32 % 1018,6 hPa 0,0 l/m 0,0 km/h (0 Bft) O-NO 67 0 min 0,4 UV-I 7,3 C 9,9 C 0,0 km/h (0 Bft)
28.06.2013 07:25 8,8 C 22,2 C 10,7 C 10,0 C 10,0 C 1,2 C 91 % 87 % 32 % 1018,6 hPa 0,0 l/m 0,0 km/h (0 Bft) NW 315 0 min 0,4 UV-I 7,4 C 10,0 C 0,0 km/h (0 Bft)
28.06.2013 07:30 8,8 C 22,2 C 10,8 C 10,3 C 10,3 C 1,5 C 92 % 87 % 39 % 1018,6 hPa 0,0 l/m 0,2 km/h (0 Bft) NW 315 0 min 0,6 UV-I 7,6 C 10,3 C 0,0 km/h (0 Bft)
28.06.2013 07:35 9,1 C 22,2 C 10,9 C 10,4 C 10,4 C 1,3 C 92 % 87 % 34 % 1018,3 hPa 0,0 l/m 0,2 km/h (0 Bft) W-SW 247 0 min 0,6 UV-I 7,9 C 10,4 C 1,8 km/h (1 Bft)
28.06.2013 07:40 9,2 C 22,2 C 11,0 C 10,6 C 10,6 C 1,4 C 92 % 87 % 37 % 1018,3 hPa 0,0 l/m 0,2 km/h (0 Bft) NO 45 0 min 0,5 UV-I 8,0 C 10,6 C 0,0 km/h (0 Bft)
28.06.2013 07:45 9,3 C 22,1 C 11,1 C 10,9 C 10,9 C 1,6 C 92 % 86 % 42 % 1018,3 hPa 0,0 l/m 0,0 km/h (0 Bft) O-NO 67 0 min 0,5 UV-I 8,1 C 10,9 C 0,0 km/h (0 Bft)
28.06.2013 07:50 9,5 C 22,0 C 11,3 C 11,3 C 11,3 C 1,8 C 92 % 86 % 47 % 1018,3 hPa 0,0 l/m 0,0 km/h (0 Bft) W-SW 247 0 min 0,2 UV-I 8,3 C 11,3 C 0,0 km/h (0 Bft)
28.06.2013 07:55 9,6 C 22,0 C 11,5 C 11,7 C 11,7 C 2,1 C 92 % 87 % 55 % 1018,6 hPa 0,0 l/m 0,2 km/h (0 Bft) SW 225 0 min 0,2 UV-I 8,4 C 11,7 C 3,1 km/h (1 Bft)
28.06.2013 08:00 9,9 C 21,9 C 11,8 C 12,3 C 12,3 C 2,4 C 92 % 87 % 63 % 1018,6 hPa 0,0 l/m 0,5 km/h (0 Bft) S-SW 202 0 min 0,0 UV-I 8,7 C 12,3 C 2,4 km/h (1 Bft)
28.06.2013 08:05 10,0 C 21,9 C 12,1 C 13,8 C 13,8 C 3,8 C 92 % 87 % 100 % 1018,6 hPa 0,0 l/m 1,0 km/h (0 Bft) W-SW 247 5 min 0,0 UV-I 8,8 C 13,8 C 4,8 km/h (1 Bft)
28.06.2013 08:10 10,4 C 21,9 C 12,4 C 15,3 C 15,3 C 4,9 C 92 % 86 % 100 % 1018,6 hPa 0,0 l/m 1,4 km/h (1 Bft) SO 135 5 min 0,0 UV-I 9,2 C 15,3 C 0,0 km/h (0 Bft)
28.06.2013 08:15 10,7 C 21,9 C 12,4 C 15,3 C 15,3 C 4,6 C 92 % 86 % 100 % 1018,7 hPa 0,0 l/m 1,4 km/h (1 Bft) SW 225 5 min 0,0 UV-I 9,5 C 15,3 C 0,0 km/h (0 Bft)
28.06.2013 08:20 11,1 C 21,8 C 12,6 C 16,0 C 16,0 C 4,9 C 92 % 86 % 100 % 1018,7 hPa 0,0 l/m 0,6 km/h (0 Bft) S 180 5 min 0,0 UV-I 9,8 C 16,0 C 1,6 km/h (1 Bft)
28.06.2013 08:25 11,2 C 21,8 C 12,8 C 16,4 C 16,4 C 5,2 C 92 % 85 % 100 % 1018,7 hPa 0,0 l/m 0,6 km/h (0 Bft) O-SO 112 5 min 0,0 UV-I 9,9 C 16,4 C 0,0 km/h (0 Bft)
28.06.2013 08:30 11,6 C 21,8 C 13,0 C 17,4 C 17,4 C 5,8 C 92 % 85 % 100 % 1018,7 hPa 0,0 l/m 0,5 km/h (0 Bft) SW 225 5 min 0,0 UV-I 10,3 C 17,4 C 1,6 km/h (1 Bft)
28.06.2013 08:35 11,9 C 21,7 C 13,2 C 18,2 C 18,2 C 6,3 C 91 % 85 % 100 % 1018,6 hPa 0,0 l/m 0,6 km/h (0 Bft) S-SO 157 5 min 0,0 UV-I 10,5 C 18,2 C 0,0 km/h (0 Bft)
28.06.2013 08:40 12,3 C 21,6 C 13,2 C 19,8 C 19,8 C 7,5 C 90 % 85 % 100 % 1018,6 hPa 0,0 l/m 1,0 km/h (0 Bft) SO 135 5 min 0,0 UV-I 10,7 C 19,8 C 5,1 km/h (1 Bft)
28.06.2013 08:45 12,5 C 21,6 C 13,2 C 20,7 C 20,7 C 8,2 C 90 % 85 % 100 % 1018,6 hPa 0,0 l/m 1,0 km/h (0 Bft) SW 225 5 min 0,0 UV-I 10,9 C 20,7 C 6,1 km/h (2 Bft)
28.06.2013 08:50 12,8 C 21,6 C 13,3 C 21,1 C 21,1 C 8,3 C 87 % 84 % 100 % 1018,6 hPa 0,0 l/m 2,3 km/h (1 Bft) NO 45 5 min 0,0 UV-I 10,7 C 21,1 C 8,5 km/h (2 Bft)
28.06.2013 08:55 13,1 C 21,6 C 13,2 C 20,9 C 20,9 C 7,8 C 86 % 84 % 100 % 1018,1 hPa 0,0 l/m 3,2 km/h (1 Bft) W-SW 247 5 min 0,0 UV-I 10,8 C 20,9 C 5,0 km/h (1 Bft)
28.06.2013 09:00 13,5 C 21,6 C 13,2 C 20,9 C 20,9 C 7,4 C 84 % 84 % 100 % 1018,1 hPa 0,0 l/m 3,4 km/h (1 Bft) NO 45 5 min 0,0 UV-I 10,8 C 20,9 C 8,7 km/h (2 Bft)
28.06.2013 09:05 13,8 C 21,6 C 13,3 C 20,9 C 20,9 C 7,1 C 83 % 84 % 100 % 1018,1 hPa 0,0 l/m 2,9 km/h (1 Bft) SW 225 5 min 0,0 UV-I 11,0 C 20,9 C 3,1 km/h (1 Bft)
28.06.2013 09:10 14,3 C 21,6 C 13,5 C 21,1 C 21,1 C 6,8 C 82 % 84 % 100 % 1018,1 hPa 0,0 l/m 1,4 km/h (1 Bft) SO 135 5 min 0,0 UV-I 11,3 C 21,1 C 0,0 km/h (0 Bft)
28.06.2013 09:15 14,5 C 21,6 C 13,4 C 21,6 C 21,6 C 7,1 C 81 % 83 % 100 % 1018,6 hPa 0,0 l/m 1,4 km/h (1 Bft) SW 225 5 min 0,0 UV-I 11,3 C 21,6 C 5,6 km/h (1 Bft)
28.06.2013 09:20 15,0 C 21,6 C 13,6 C 22,2 C 22,2 C 7,2 C 79 % 83 % 100 % 1018,6 hPa 0,0 l/m 1,8 km/h (1 Bft) W-SW 247 5 min 0,0 UV-I 11,4 C 22,2 C 8,0 km/h (2 Bft)
28.06.2013 09:25 15,1 C 21,6 C 13,6 C 21,7 C 21,7 C 6,6 C 79 % 83 % 100 % 1018,6 hPa 0,0 l/m 2,7 km/h (1 Bft) SW 225 5 min 0,0 UV-I 11,5 C 21,7 C 7,7 km/h (2 Bft)
28.06.2013 09:30 15,4 C 21,6 C 13,9 C 22,1 C 22,1 C 6,7 C 78 % 83 % 100 % 1018,6 hPa 0,0 l/m 2,9 km/h (1 Bft) W-SW 247 5 min 0,0 UV-I 11,6 C 22,1 C 0,0 km/h (0 Bft)
28.06.2013 09:35 15,6 C 21,6 C 14,1 C 23,2 C 23,2 C 7,6 C 78 % 83 % 100 % 1018,6 hPa 0,0 l/m 1,6 km/h (1 Bft) S-SW 202 5 min 0,0 UV-I 11,8 C 23,2 C 3,7 km/h (1 Bft)
28.06.2013 09:40 15,7 C 21,6 C 14,2 C 22,9 C 22,9 C 7,2 C 77 % 83 % 100 % 1018,6 hPa 0,0 l/m 2,4 km/h (1 Bft) SW 225 5 min 0,0 UV-I 11,7 C 22,9 C 0,0 km/h (0 Bft)
28.06.2013 09:45 15,9 C 21,6 C 14,4 C 23,0 C 23,0 C 7,1 C 77 % 83 % 100 % 1018,6 hPa 0,0 l/m 2,3 km/h (1 Bft) O-NO 67 5 min 0,0 UV-I 11,9 C 23,0 C 1,9 km/h (1 Bft)
28.06.2013 09:50 16,0 C 21,5 C 14,7 C 24,0 C 24,0 C 8,0 C 77 % 82 % 100 % 1018,6 hPa 0,0 l/m 0,6 km/h (0 Bft) S 180 5 min 0,0 UV-I 12,0 C 24,0 C 0,0 km/h (0 Bft)
28.06.2013 09:55 16,2 C 21,5 C 14,7 C 24,2 C 24,2 C 8,0 C 75 % 82 % 100 % 1018,3 hPa 0,0 l/m 1,9 km/h (1 Bft) W 270 5 min 0,0 UV-I 11,8 C 24,2 C 5,3 km/h (1 Bft)
28.06.2013 10:00 16,0 C 21,6 C 14,5 C 21,2 C 21,2 C 5,2 C 74 % 82 % 100 % 1018,3 hPa 0,0 l/m 3,7 km/h (1 Bft) W 270 5 min 0,0 UV-I 11,4 C 21,2 C 9,3 km/h (2 Bft)
28.06.2013 10:05 15,7 C 21,6 C 14,5 C 19,8 C 19,8 C 4,1 C 74 % 82 % 100 % 1018,3 hPa 0,0 l/m 3,9 km/h (1 Bft) W 270 5 min 0,0 UV-I 11,1 C 19,8 C 3,1 km/h (1 Bft)
28.06.2013 10:10 15,6 C 21,6 C 14,5 C 18,7 C 18,7 C 3,1 C 74 % 82 % 82 % 1018,3 hPa 0,0 l/m 2,9 km/h (1 Bft) S 180 0 min 0,0 UV-I 11,0 C 18,7 C 1,6 km/h (1 Bft)
28.06.2013 10:15 15,5 C 21,6 C 14,3 C 18,6 C 18,6 C 3,1 C 74 % 82 % 82 % 1017,9 hPa 0,0 l/m 3,4 km/h (1 Bft) W-SW 247 0 min 0,0 UV-I 10,9 C 18,6 C 7,4 km/h (2 Bft)
28.06.2013 10:20 15,4 C 21,6 C 14,4 C 19,3 C 19,3 C 3,9 C 75 % 82 % 100 % 1017,9 hPa 0,0 l/m 2,3 km/h (1 Bft) W 270 5 min 0,0 UV-I 11,0 C 19,3 C 0,0 km/h (0 Bft)
28.06.2013 10:25 15,5 C 21,6 C 14,5 C 19,5 C 19,5 C 4,0 C 74 % 82 % 100 % 1017,9 hPa 0,0 l/m 2,7 km/h (1 Bft) O-SO 112 5 min 0,0 UV-I 10,9 C 19,5 C 2,1 km/h (1 Bft)
28.06.2013 10:30 15,6 C 21,6 C 14,7 C 19,0 C 19,0 C 3,4 C 74 % 82 % 89 % 1017,9 hPa 0,0 l/m 3,1 km/h (1 Bft) S 180 5 min 0,0 UV-I 11,0 C 19,0 C 6,1 km/h (2 Bft)
28.06.2013 10:35 15,6 C 21,5 C 14,7 C 18,8 C 18,8 C 3,2 C 74 % 82 % 84 % 1018,2 hPa 0,0 l/m 2,7 km/h (1 Bft) S 180 0 min 0,0 UV-I 11,0 C 18,8 C 0,0 km/h (0 Bft)
28.06.2013 10:40 15,6 C 21,5 C 14,8 C 19,3 C 19,3 C 3,7 C 75 % 82 % 97 % 1018,2 hPa 0,0 l/m 1,9 km/h (1 Bft) O-NO 67 5 min 0,0 UV-I 11,2 C 19,3 C 0,0 km/h (0 Bft)
28.06.2013 10:45 15,7 C 21,5 C 14,8 C 19,0 C 19,0 C 3,3 C 74 % 81 % 87 % 1018,2 hPa 0,0 l/m 1,0 km/h (0 Bft) W-NW 292 5 min 0,0 UV-I 11,1 C 19,0 C 1,9 km/h (1 Bft)
28.06.2013 10:50 15,8 C 21,5 C 14,9 C 18,6 C 18,6 C 2,8 C 74 % 81 % 74 % 1018,2 hPa 0,0 l/m 0,5 km/h (0 Bft) NO 45 0 min 0,0 UV-I 11,2 C 18,6 C 0,0 km/h (0 Bft)
28.06.2013 10:55 15,9 C 21,6 C 14,9 C 18,4 C 18,4 C 2,5 C 74 % 81 % 66 % 1018,1 hPa 0,0 l/m 0,3 km/h (0 Bft) O-NO 67 0 min 0,0 UV-I 11,3 C 18,4 C 0,0 km/h (0 Bft)
28.06.2013 11:00 16,1 C 21,6 C 14,9 C 19,5 C 19,5 C 3,4 C 74 % 81 % 89 % 1018,1 hPa 0,0 l/m 0,6 km/h (0 Bft) O-NO 67 5 min 0,0 UV-I 11,5 C 19,5 C 0,0 km/h (0 Bft)
28.06.2013 11:05 16,1 C 21,6 C 14,9 C 19,4 C 19,4 C 3,3 C 73 % 80 % 87 % 1018,1 hPa 0,0 l/m 0,8 km/h (0 Bft) SW 225 5 min 0,0 UV-I 11,3 C 19,4 C 0,0 km/h (0 Bft)
28.06.2013 11:10 16,2 C 21,6 C 15,0 C 20,0 C 20,0 C 3,8 C 73 % 80 % 100 % 1018,1 hPa 0,0 l/m 1,1 km/h (1 Bft) SO 135 5 min 0,0 UV-I 11,4 C 20,0 C 2,6 km/h (1 Bft)
28.06.2013 11:15 16,4 C 21,6 C 15,0 C 21,2 C 21,2 C 4,8 C 71 % 80 % 100 % 1018,0 hPa 0,0 l/m 1,6 km/h (1 Bft) S-SO 157 5 min 0,0 UV-I 11,1 C 21,2 C 3,1 km/h (1 Bft)
28.06.2013 11:20 16,7 C 21,6 C 15,1 C 22,7 C 22,7 C 6,0 C 70 % 80 % 100 % 1018,0 hPa 0,0 l/m 1,6 km/h (1 Bft) W-SW 247 5 min 0,0 UV-I 11,2 C 22,7 C 11,6 km/h (2 Bft)
28.06.2013 11:25 16,8 C 21,6 C 15,1 C 23,0 C 23,0 C 6,2 C 70 % 80 % 100 % 1018,0 hPa 0,0 l/m 1,9 km/h (1 Bft) SW 225 5 min 0,0 UV-I 11,3 C 23,0 C 0,0 km/h (0 Bft)
28.06.2013 11:30 16,9 C 21,6 C 15,2 C 22,7 C 22,7 C 5,8 C 69 % 79 % 100 % 1018,0 hPa 0,0 l/m 2,3 km/h (1 Bft) N-NO 22 5 min 0,0 UV-I 11,2 C 22,7 C 1,6 km/h (1 Bft)
28.06.2013 11:35 16,9 C 21,6 C 15,3 C 22,2 C 22,2 C 5,3 C 68 % 79 % 100 % 1018,1 hPa 0,0 l/m 2,1 km/h (1 Bft) N-NW 337 5 min 0,0 UV-I 11,0 C 22,2 C 1,6 km/h (1 Bft)
28.06.2013 11:40 16,8 C 21,6 C 15,5 C 22,9 C 22,9 C 6,1 C 69 % 78 % 100 % 1018,1 hPa 0,0 l/m 1,8 km/h (1 Bft) SW 225 5 min 0,0 UV-I 11,1 C 22,9 C 2,4 km/h (1 Bft)
28.06.2013 11:45 16,9 C 21,7 C 15,6 C 22,5 C 22,5 C 5,6 C 68 % 78 % 100 % 1018,1 hPa 0,0 l/m 1,4 km/h (1 Bft) SO 135 5 min 0,0 UV-I 11,0 C 22,5 C 0,0 km/h (0 Bft)
28.06.2013 11:50 17,1 C 21,7 C 15,7 C 22,3 C 22,3 C 5,2 C 69 % 78 % 100 % 1018,1 hPa 0,0 l/m 1,9 km/h (1 Bft) W-SW 247 5 min 0,0 UV-I 11,4 C 22,3 C 0,0 km/h (0 Bft)
28.06.2013 11:55 17,3 C 21,7 C 15,9 C 22,8 C 22,8 C 5,5 C 69 % 77 % 100 % 1017,8 hPa 0,0 l/m 1,4 km/h (1 Bft) W-SW 247 5 min 0,0 UV-I 11,6 C 22,8 C 0,0 km/h (0 Bft)
28.06.2013 12:00 17,5 C 21,7 C 15,9 C 22,5 C 22,5 C 5,0 C 67 % 77 % 100 % 1017,8 hPa 0,0 l/m 1,3 km/h (1 Bft) SW 225 5 min 0,0 UV-I 11,3 C 22,5 C 5,6 km/h (1 Bft)
28.06.2013 12:05 17,5 C 21,7 C 15,9 C 22,3 C 22,3 C 4,8 C 66 % 77 % 100 % 1017,8 hPa 0,0 l/m 2,3 km/h (1 Bft) S-SW 202 5 min 0,0 UV-I 11,1 C 22,3 C 9,5 km/h (2 Bft)
28.06.2013 12:10 17,7 C 21,7 C 16,0 C 22,0 C 22,0 C 4,3 C 67 % 77 % 100 % 1017,8 hPa 0,0 l/m 2,9 km/h (1 Bft) SW 225 5 min 0,0 UV-I 11,5 C 22,0 C 2,9 km/h (1 Bft)
28.06.2013 12:15 17,9 C 21,7 C 16,1 C 23,1 C 23,1 C 5,2 C 66 % 76 % 100 % 1017,6 hPa 0,0 l/m 1,4 km/h (1 Bft) NO 45 5 min 0,0 UV-I 11,5 C 23,1 C 3,2 km/h (1 Bft)
28.06.2013 12:20 18,6 C 21,6 C 16,2 C 24,4 C 24,4 C 5,8 C 66 % 75 % 100 % 1017,6 hPa 0,0 l/m 1,4 km/h (1 Bft) NO 45 5 min 0,1 UV-I 12,1 C 24,4 C 0,0 km/h (0 Bft)
28.06.2013 12:25 18,9 C 21,7 C 16,3 C 24,5 C 24,5 C 5,6 C 64 % 75 % 100 % 1017,6 hPa 0,0 l/m 1,9 km/h (1 Bft) S 180 5 min 0,1 UV-I 11,9 C 24,5 C 6,1 km/h (2 Bft)
28.06.2013 12:30 18,5 C 21,7 C 16,0 C 22,2 C 22,2 C 3,7 C 62 % 75 % 97 % 1017,6 hPa 0,0 l/m 3,9 km/h (1 Bft) S-SW 202 5 min 0,0 UV-I 11,1 C 22,2 C 9,8 km/h (2 Bft)
28.06.2013 12:35 18,4 C 21,7 C 16,0 C 21,7 C 21,7 C 3,3 C 61 % 75 % 87 % 1017,8 hPa 0,0 l/m 5,1 km/h (1 Bft) W 270 5 min 0,0 UV-I 10,7 C 21,7 C 4,0 km/h (1 Bft)
28.06.2013 12:41 18,3 C 21,7 C 16,1 C 21,2 C 21,2 C 2,9 C 62 % 75 % 76 % 1017,8 hPa 0,0 l/m 4,2 km/h (1 Bft) N 0 0 min 0,0 UV-I 10,9 C 21,2 C 4,0 km/h (1 Bft)
28.06.2013 13:00 19,1 C 21,7 C 16,7 C 22,3 C 22,3 C 3,2 C 61 % 75 % 84 % 1017,6 hPa 0,0 l/m 4,3 km/h (1 Bft) NW 315 0 min 0,0 UV-I 11,4 C 22,3 C 0,0 km/h (0 Bft)
28.06.2013 13:05 19,3 C 21,7 C 16,9 C 22,8 C 22,8 C 3,5 C 60 % 75 % 92 % 1017,6 hPa 0,0 l/m 4,2 km/h (1 Bft) W-NW 292 5 min 0,0 UV-I 11,3 C 22,8 C 7,1 km/h (2 Bft)
28.06.2013 13:10 19,2 C 21,8 C 17,1 C 22,8 C 22,8 C 3,6 C 59 % 75 % 95 % 1017,6 hPa 0,0 l/m 4,0 km/h (1 Bft) W-SW 247 5 min 0,0 UV-I 11,0 C 22,8 C 7,1 km/h (2 Bft)
28.06.2013 13:15 19,5 C 21,8 C 17,4 C 23,2 C 23,2 C 3,7 C 60 % 75 % 97 % 1017,4 hPa 0,0 l/m 4,5 km/h (1 Bft) W-SW 247 5 min 0,0 UV-I 11,5 C 23,2 C 5,0 km/h (1 Bft)
28.06.2013 13:20 19,9 C 21,8 C 17,9 C 24,1 C 24,1 C 4,2 C 59 % 73 % 100 % 1017,4 hPa 0,0 l/m 3,1 km/h (1 Bft) S 180 5 min 0,1 UV-I 11,6 C 24,1 C 2,1 km/h (1 Bft)
28.06.2013 13:25 20,2 C 21,8 C 17,8 C 24,2 C 24,2 C 4,0 C 56 % 73 % 100 % 1017,4 hPa 0,0 l/m 3,4 km/h (1 Bft) W-SW 247 5 min 0,1 UV-I 11,1 C 24,2 C 7,4 km/h (2 Bft)
28.06.2013 13:30 20,0 C 21,8 C 17,6 C 23,5 C 23,5 C 3,5 C 55 % 73 % 92 % 1017,4 hPa 0,0 l/m 4,2 km/h (1 Bft) S 180 5 min 0,0 UV-I 10,7 C 23,5 C 4,8 km/h (1 Bft)
28.06.2013 13:35 20,1 C 21,8 C 17,8 C 23,8 C 23,8 C 3,7 C 56 % 73 % 97 % 1017,2 hPa 0,0 l/m 3,9 km/h (1 Bft) SW 225 5 min 0,0 UV-I 11,0 C 23,8 C 6,1 km/h (2 Bft)
28.06.2013 13:40 20,4 C 21,9 C 18,2 C 24,4 C 24,4 C 4,0 C 58 % 73 % 100 % 1017,2 hPa 0,0 l/m 3,7 km/h (1 Bft) S 180 5 min 0,1 UV-I 11,9 C 24,4 C 6,8 km/h (2 Bft)
28.06.2013 13:45 20,7 C 21,9 C 18,4 C 24,8 C 24,8 C 4,1 C 57 % 72 % 100 % 1017,2 hPa 0,0 l/m 3,7 km/h (1 Bft) SW 225 5 min 0,1 UV-I 11,9 C 24,8 C 4,5 km/h (1 Bft)
28.06.2013 13:50 20,5 C 21,9 C 18,4 C 24,3 C 24,3 C 3,8 C 55 % 72 % 100 % 1017,2 hPa 0,0 l/m 4,8 km/h (1 Bft) W-SW 247 5 min 0,0 UV-I 11,1 C 24,3 C 13,5 km/h (3 Bft)
28.06.2013 13:55 20,1 C 21,9 C 19,0 C 24,2 C 24,2 C 4,1 C 55 % 72 % 100 % 1017,2 hPa 0,0 l/m 4,7 km/h (1 Bft) S-SW 202 5 min 0,0 UV-I 10,8 C 24,2 C 12,1 km/h (2 Bft)
28.06.2013 14:00 20,2 C 21,9 C 19,1 C 24,2 C 24,2 C 4,0 C 53 % 68 % 100 % 1017,2 hPa 0,0 l/m 4,8 km/h (1 Bft) SW 225 5 min 0,0 UV-I 10,3 C 24,2 C 9,2 km/h (2 Bft)
28.06.2013 14:05 20,1 C 21,9 C 18,8 C 23,7 C 23,7 C 3,6 C 53 % 69 % 95 % 1017,2 hPa 0,0 l/m 5,5 km/h (1 Bft) S 180 5 min 0,0 UV-I 10,2 C 23,7 C 5,6 km/h (1 Bft)
28.06.2013 14:10 19,7 C 21,9 C 18,4 C 22,7 C 22,7 C 3,0 C 55 % 69 % 79 % 1017,2 hPa 0,0 l/m 4,7 km/h (1 Bft) S 180 0 min 0,0 UV-I 10,4 C 22,7 C 2,3 km/h (1 Bft)
28.06.2013 14:15 19,6 C 21,9 C 18,2 C 22,2 C 22,2 C 2,6 C 56 % 70 % 68 % 1017,2 hPa 0,0 l/m 4,0 km/h (1 Bft) S 180 0 min 0,0 UV-I 10,6 C 22,2 C 6,0 km/h (2 Bft)
28.06.2013 14:20 19,5 C 21,9 C 18,1 C 21,7 C 21,7 C 2,2 C 56 % 70 % 58 % 1017,2 hPa 0,0 l/m 4,0 km/h (1 Bft) SW 225 0 min 0,0 UV-I 10,5 C 21,7 C 9,5 km/h (2 Bft)
28.06.2013 14:25 19,5 C 21,9 C 18,0 C 21,8 C 21,8 C 2,3 C 55 % 70 % 61 % 1017,2 hPa 0,0 l/m 4,0 km/h (1 Bft) S 180 0 min 0,0 UV-I 10,2 C 21,8 C 6,8 km/h (2 Bft)
28.06.2013 14:30 19,7 C 21,9 C 18,4 C 22,8 C 22,8 C 3,1 C 58 % 70 % 82 % 1017,2 hPa 0,0 l/m 2,6 km/h (1 Bft) O-SO 112 0 min 0,0 UV-I 11,2 C 22,8 C 0,0 km/h (0 Bft)
28.06.2013 14:35 20,3 C 22,0 C 18,7 C 24,4 C 24,4 C 4,1 C 57 % 69 % 100 % 1017,2 hPa 0,0 l/m 1,8 km/h (1 Bft) SW 225 5 min 0,0 UV-I 11,5 C 24,4 C 0,0 km/h (0 Bft)
28.06.2013 14:40 20,8 C 22,0 C 18,8 C 25,8 C 25,8 C 5,0 C 57 % 68 % 100 % 1017,2 hPa 0,0 l/m 1,6 km/h (1 Bft) S 180 5 min 0,0 UV-I 12,0 C 25,8 C 4,3 km/h (1 Bft)
28.06.2013 14:45 21,3 C 22,0 C 19,1 C 26,2 C 26,2 C 4,9 C 53 % 69 % 100 % 1017,2 hPa 0,0 l/m 2,3 km/h (1 Bft) W-SW 247 5 min 0,0 UV-I 11,3 C 26,2 C 6,4 km/h (2 Bft)
28.06.2013 14:50 21,8 C 22,0 C 19,0 C 26,5 C 26,5 C 4,7 C 53 % 68 % 100 % 1017,2 hPa 0,0 l/m 2,4 km/h (1 Bft) S-SO 157 5 min 0,0 UV-I 11,8 C 26,5 C 2,7 km/h (1 Bft)
28.06.2013 14:55 21,9 C 22,1 C 19,1 C 26,7 C 26,7 C 4,8 C 52 % 67 % 100 % 1016,8 hPa 0,0 l/m 3,1 km/h (1 Bft) NO 45 5 min 0,0 UV-I 11,6 C 26,7 C 3,4 km/h (1 Bft)
28.06.2013 15:00 21,6 C 22,1 C 19,2 C 25,8 C 25,8 C 4,2 C 52 % 66 % 100 % 1016,8 hPa 0,0 l/m 3,9 km/h (1 Bft) S 180 5 min 0,0 UV-I 11,3 C 25,8 C 3,4 km/h (1 Bft)
28.06.2013 15:05 21,5 C 22,1 C 19,4 C 25,9 C 25,9 C 4,4 C 51 % 67 % 100 % 1016,8 hPa 0,0 l/m 4,2 km/h (1 Bft) SW 225 5 min 0,0 UV-I 10,9 C 25,9 C 11,6 km/h (2 Bft)
28.06.2013 15:10 20,9 C 22,1 C 19,1 C 24,5 C 24,5 C 3,6 C 53 % 67 % 95 % 1016,8 hPa 0,0 l/m 5,3 km/h (1 Bft) W-SW 247 5 min 0,0 UV-I 11,0 C 24,5 C 8,5 km/h (2 Bft)
28.06.2013 15:15 20,7 C 22,1 C 18,8 C 23,6 C 23,6 C 2,9 C 53 % 67 % 76 % 1016,9 hPa 0,0 l/m 5,6 km/h (1 Bft) W-SW 247 0 min 0,0 UV-I 10,8 C 23,6 C 6,1 km/h (2 Bft)
28.06.2013 15:20 20,6 C 22,1 C 18,9 C 23,5 C 23,5 C 2,9 C 54 % 68 % 76 % 1016,9 hPa 0,0 l/m 5,1 km/h (1 Bft) W 270 0 min 0,0 UV-I 11,0 C 23,5 C 4,5 km/h (1 Bft)
28.06.2013 15:25 20,6 C 22,1 C 18,8 C 23,4 C 23,4 C 2,8 C 54 % 68 % 74 % 1016,9 hPa 0,0 l/m 5,5 km/h (1 Bft) W-SW 247 0 min 0,0 UV-I 11,0 C 23,4 C 8,2 km/h (2 Bft)
28.06.2013 15:30 20,5 C 22,1 C 18,8 C 23,5 C 23,5 C 3,0 C 54 % 69 % 79 % 1016,9 hPa 0,0 l/m 5,8 km/h (2 Bft) S-SW 202 0 min 0,0 UV-I 10,9 C 23,5 C 15,1 km/h (3 Bft)
28.06.2013 15:35 20,4 C 22,1 C 18,8 C 23,0 C 23,0 C 2,6 C 54 % 69 % 68 % 1016,4 hPa 0,0 l/m 5,3 km/h (1 Bft) W 270 0 min 0,0 UV-I 10,8 C 23,0 C 7,6 km/h (2 Bft)
28.06.2013 15:40 20,2 C 22,1 C 18,8 C 23,0 C 23,0 C 2,8 C 55 % 69 % 74 % 1016,4 hPa 0,0 l/m 4,7 km/h (1 Bft) NW 315 0 min 0,0 UV-I 10,9 C 23,0 C 5,5 km/h (1 Bft)
28.06.2013 15:45 20,2 C 22,1 C 18,7 C 22,8 C 22,8 C 2,6 C 54 % 69 % 68 % 1016,4 hPa 0,0 l/m 5,0 km/h (1 Bft) S 180 0 min 0,0 UV-I 10,6 C 22,8 C 4,8 km/h (1 Bft)
28.06.2013 15:50 20,3 C 22,2 C 18,8 C 23,2 C 23,2 C 2,9 C 55 % 69 % 76 % 1016,4 hPa 0,0 l/m 4,2 km/h (1 Bft) W 270 0 min 0,0 UV-I 11,0 C 23,2 C 5,3 km/h (1 Bft)
28.06.2013 15:55 20,5 C 22,2 C 18,9 C 24,0 C 24,0 C 3,5 C 52 % 68 % 92 % 1016,9 hPa 0,0 l/m 4,5 km/h (1 Bft) SW 225 5 min 0,0 UV-I 10,3 C 24,0 C 7,7 km/h (2 Bft)
28.06.2013 16:00 20,6 C 22,2 C 18,8 C 24,2 C 24,2 C 3,6 C 54 % 69 % 95 % 1016,9 hPa 0,0 l/m 4,7 km/h (1 Bft) SO 135 5 min 0,0 UV-I 11,0 C 24,2 C 4,2 km/h (1 Bft)
28.06.2013 16:05 20,4 C 22,2 C 18,8 C 24,0 C 24,0 C 3,6 C 53 % 68 % 95 % 1016,9 hPa 0,0 l/m 4,5 km/h (1 Bft) S 180 5 min 0,0 UV-I 10,5 C 24,0 C 2,9 km/h (1 Bft)
28.06.2013 16:10 20,5 C 22,2 C 18,8 C 24,7 C 24,7 C 4,2 C 54 % 65 % 100 % 1016,9 hPa 0,0 l/m 3,5 km/h (1 Bft) NW 315 5 min 0,0 UV-I 10,9 C 24,7 C 3,9 km/h (1 Bft)
28.06.2013 16:15 20,5 C 22,2 C 18,8 C 24,8 C 24,8 C 4,3 C 55 % 66 % 100 % 1016,8 hPa 0,0 l/m 2,7 km/h (1 Bft) S-SW 202 5 min 0,0 UV-I 11,1 C 24,8 C 4,8 km/h (1 Bft)
28.06.2013 16:20 20,9 C 22,3 C 19,2 C 25,0 C 25,0 C 4,1 C 53 % 68 % 100 % 1016,8 hPa 0,0 l/m 4,2 km/h (1 Bft) SW 225 5 min 0,0 UV-I 11,0 C 25,0 C 6,8 km/h (2 Bft)
28.06.2013 16:25 21,1 C 22,3 C 19,3 C 25,2 C 25,2 C 4,1 C 54 % 68 % 100 % 1016,8 hPa 0,0 l/m 4,0 km/h (1 Bft) SW 225 5 min 0,0 UV-I 11,4 C 25,2 C 0,0 km/h (0 Bft)
28.06.2013 16:30 21,0 C 22,3 C 18,9 C 24,4 C 24,4 C 3,4 C 53 % 68 % 89 % 1016,8 hPa 0,0 l/m 2,9 km/h (1 Bft) SW 225 5 min 0,0 UV-I 11,0 C 24,4 C 5,0 km/h (1 Bft)
28.06.2013 16:35 20,7 C 22,3 C 18,8 C 23,2 C 23,2 C 2,5 C 53 % 69 % 66 % 1016,8 hPa 0,0 l/m 2,6 km/h (1 Bft) W-SW 247 0 min 0,0 UV-I 10,8 C 23,2 C 2,6 km/h (1 Bft)
28.06.2013 16:40 20,7 C 22,3 C 18,7 C 22,7 C 22,7 C 2,0 C 55 % 69 % 53 % 1016,8 hPa 0,0 l/m 2,3 km/h (1 Bft) O 90 0 min 0,0 UV-I 11,3 C 22,7 C 1,9 km/h (1 Bft)
28.06.2013 16:45 20,4 C 22,3 C 18,4 C 21,8 C 21,8 C 1,4 C 54 % 69 % 37 % 1016,8 hPa 0,0 l/m 2,3 km/h (1 Bft) SW 225 0 min 0,0 UV-I 10,8 C 21,8 C 5,1 km/h (1 Bft)
28.06.2013 16:50 19,8 C 22,3 C 18,1 C 21,0 C 21,0 C 1,2 C 54 % 70 % 32 % 1016,8 hPa 0,0 l/m 3,5 km/h (1 Bft) W-SW 247 0 min 0,0 UV-I 10,2 C 21,0 C 5,8 km/h (2 Bft)
28.06.2013 16:55 19,9 C 22,3 C 18,4 C 22,0 C 22,0 C 2,1 C 56 % 71 % 55 % 1016,2 hPa 0,0 l/m 3,4 km/h (1 Bft) W 270 0 min 0,0 UV-I 10,9 C 22,0 C 4,7 km/h (1 Bft)
28.06.2013 17:00 20,5 C 22,4 C 18,7 C 24,2 C 24,2 C 3,7 C 55 % 70 % 97 % 1016,2 hPa 0,0 l/m 2,4 km/h (1 Bft) S-SO 157 5 min 0,0 UV-I 11,1 C 24,2 C 2,6 km/h (1 Bft)
28.06.2013 17:05 20,9 C 22,4 C 18,9 C 25,2 C 25,2 C 4,3 C 54 % 70 % 100 % 1016,2 hPa 0,0 l/m 2,6 km/h (1 Bft) NW 315 5 min 0,0 UV-I 11,2 C 25,2 C 4,7 km/h (1 Bft)
28.06.2013 17:10 21,3 C 22,4 C 19,1 C 25,8 C 25,8 C 4,5 C 53 % 70 % 100 % 1016,2 hPa 0,0 l/m 3,5 km/h (1 Bft) W-SW 247 5 min 0,0 UV-I 11,3 C 25,8 C 10,0 km/h (2 Bft)
28.06.2013 17:15 21,2 C 22,4 C 19,1 C 25,7 C 25,7 C 4,5 C 53 % 69 % 100 % 1016,4 hPa 0,0 l/m 3,5 km/h (1 Bft) S 180 5 min 0,0 UV-I 11,2 C 25,7 C 1,6 km/h (1 Bft)
28.06.2013 17:20 21,5 C 22,4 C 19,0 C 26,2 C 26,2 C 4,7 C 53 % 68 % 100 % 1016,4 hPa 0,0 l/m 2,9 km/h (1 Bft) W 270 5 min 0,0 UV-I 11,5 C 26,2 C 4,3 km/h (1 Bft)
28.06.2013 17:25 21,7 C 22,4 C 19,1 C 26,2 C 26,2 C 4,5 C 53 % 69 % 100 % 1016,4 hPa 0,0 l/m 1,6 km/h (1 Bft) S 180 5 min 0,0 UV-I 11,7 C 26,2 C 1,8 km/h (1 Bft)
28.06.2013 17:30 21,6 C 22,4 C 18,5 C 24,5 C 24,5 C 2,9 C 51 % 68 % 76 % 1016,4 hPa 0,0 l/m 2,6 km/h (1 Bft) S 180 0 min 0,0 UV-I 11,0 C 24,5 C 0,0 km/h (0 Bft)
28.06.2013 17:35 21,3 C 22,4 C 18,5 C 23,2 C 23,2 C 1,9 C 52 % 69 % 50 % 1016,4 hPa 0,0 l/m 2,6 km/h (1 Bft) S 180 0 min 0,0 UV-I 11,0 C 23,2 C 4,3 km/h (1 Bft)
28.06.2013 17:40 20,9 C 22,5 C 18,7 C 23,4 C 23,4 C 2,5 C 53 % 70 % 66 % 1016,4 hPa 0,0 l/m 2,7 km/h (1 Bft) W-SW 247 0 min 0,0 UV-I 11,0 C 23,4 C 4,3 km/h (1 Bft)
28.06.2013 17:45 21,0 C 22,5 C 19,1 C 24,6 C 24,6 C 3,6 C 53 % 69 % 95 % 1016,4 hPa 0,0 l/m 2,9 km/h (1 Bft) SO 135 5 min 0,0 UV-I 11,0 C 24,6 C 4,3 km/h (1 Bft)
28.06.2013 17:50 21,2 C 22,5 C 18,9 C 24,9 C 24,9 C 3,7 C 52 % 69 % 97 % 1016,4 hPa 0,0 l/m 2,3 km/h (1 Bft) SW 225 5 min 0,0 UV-I 10,9 C 24,9 C 3,2 km/h (1 Bft)
28.06.2013 17:55 21,2 C 22,5 C 18,7 C 24,3 C 24,3 C 3,1 C 53 % 68 % 82 % 1016,4 hPa 0,0 l/m 1,6 km/h (1 Bft) S 180 0 min 0,0 UV-I 11,2 C 24,3 C 0,0 km/h (0 Bft)
28.06.2013 18:00 21,3 C 22,5 C 18,9 C 24,9 C 24,9 C 3,6 C 54 % 68 % 95 % 1016,4 hPa 0,0 l/m 1,0 km/h (0 Bft) S-SO 157 5 min 0,0 UV-I 11,6 C 24,9 C 0,0 km/h (0 Bft)
28.06.2013 18:05 21,3 C 22,5 C 18,8 C 25,5 C 25,5 C 4,2 C 52 % 67 % 100 % 1016,4 hPa 0,0 l/m 0,8 km/h (0 Bft) W-SW 247 5 min 0,0 UV-I 11,0 C 25,5 C 2,6 km/h (1 Bft)
28.06.2013 18:10 21,5 C 22,5 C 19,0 C 26,2 C 26,2 C 4,7 C 53 % 68 % 100 % 1016,4 hPa 0,0 l/m 1,0 km/h (0 Bft) W-SW 247 5 min 0,0 UV-I 11,5 C 26,2 C 1,6 km/h (1 Bft)
28.06.2013 18:15 21,5 C 22,5 C 19,0 C 26,4 C 26,4 C 4,9 C 52 % 68 % 100 % 1015,9 hPa 0,0 l/m 1,3 km/h (1 Bft) W 270 5 min 0,0 UV-I 11,2 C 26,4 C 2,4 km/h (1 Bft)
28.06.2013 18:20 21,7 C 22,5 C 19,1 C 25,9 C 25,9 C 4,2 C 53 % 68 % 100 % 1015,9 hPa 0,0 l/m 1,9 km/h (1 Bft) S-SW 202 5 min 0,0 UV-I 11,7 C 25,9 C 4,7 km/h (1 Bft)
28.06.2013 18:25 21,6 C 22,5 C 19,1 C 25,2 C 25,2 C 3,6 C 52 % 69 % 95 % 1015,9 hPa 0,0 l/m 2,4 km/h (1 Bft) W-SW 247 5 min 0,0 UV-I 11,3 C 25,2 C 3,5 km/h (1 Bft)
28.06.2013 18:30 21,2 C 22,5 C 18,6 C 23,7 C 23,7 C 2,5 C 52 % 69 % 66 % 1015,9 hPa 0,0 l/m 2,9 km/h (1 Bft) W 270 0 min 0,0 UV-I 10,9 C 23,7 C 3,9 km/h (1 Bft)
28.06.2013 18:35 20,7 C 22,5 C 18,5 C 22,2 C 22,2 C 1,5 C 52 % 69 % 39 % 1016,2 hPa 0,0 l/m 3,4 km/h (1 Bft) S 180 0 min 0,0 UV-I 10,5 C 22,2 C 3,9 km/h (1 Bft)
28.06.2013 18:41 20,1 C 22,6 C 18,1 C 20,9 C 20,9 C 0,8 C 53 % 70 % 21 % 1016,2 hPa 0,0 l/m 3,4 km/h (1 Bft) N 0 0 min 0,0 UV-I 10,2 C 20,9 C 5,1 km/h (1 Bft)
28.06.2013 19:00 18,1 C 22,5 C 17,2 C 18,1 C 18,1 C 0,0 C 59 % 69 % 0 % 1016,5 hPa 0,0 l/m 5,6 km/h (1 Bft) W-SW 247 0 min 0,0 UV-I 10,0 C 18,1 C 19,3 km/h (3 Bft)
28.06.2013 19:05 18,1 C 22,6 C 17,1 C 18,1 C 18,1 C 0,0 C 60 % 71 % 0 % 1016,5 hPa 0,0 l/m 5,3 km/h (1 Bft) SW 225 0 min 0,0 UV-I 10,2 C 18,1 C 4,0 km/h (1 Bft)
28.06.2013 19:10 17,8 C 22,6 C 17,1 C 18,0 C 18,0 C 0,2 C 61 % 72 % 5 % 1016,5 hPa 0,0 l/m 4,2 km/h (1 Bft) S-SW 202 0 min 0,0 UV-I 10,2 C 18,0 C 4,0 km/h (1 Bft)
28.06.2013 19:15 17,7 C 22,6 C 16,9 C 17,9 C 17,9 C 0,2 C 61 % 72 % 5 % 1016,6 hPa 0,0 l/m 3,7 km/h (1 Bft) W-SW 247 0 min 0,0 UV-I 10,1 C 17,9 C 7,1 km/h (2 Bft)
28.06.2013 19:20 17,6 C 22,6 C 16,8 C 17,7 C 17,7 C 0,1 C 62 % 72 % 3 % 1016,6 hPa 0,0 l/m 3,7 km/h (1 Bft) W-SW 247 0 min 0,0 UV-I 10,2 C 17,7 C 2,7 km/h (1 Bft)
28.06.2013 19:25 17,5 C 22,7 C 16,7 C 17,6 C 17,6 C 0,1 C 62 % 72 % 3 % 1016,6 hPa 0,0 l/m 3,5 km/h (1 Bft) W-SW 247 0 min 0,0 UV-I 10,1 C 17,6 C 2,1 km/h (1 Bft)
28.06.2013 19:30 17,4 C 22,7 C 16,6 C 17,4 C 17,4 C 0,0 C 63 % 73 % 0 % 1016,6 hPa 0,0 l/m 2,9 km/h (1 Bft) SW 225 0 min 0,0 UV-I 10,3 C 17,4 C 3,5 km/h (1 Bft)
28.06.2013 19:35 17,2 C 22,7 C 16,5 C 17,3 C 17,3 C 0,1 C 63 % 73 % 3 % 1016,7 hPa 0,0 l/m 2,9 km/h (1 Bft) W-SW 247 0 min 0,0 UV-I 10,1 C 17,3 C 4,5 km/h (1 Bft)
28.06.2013 19:40 17,2 C 22,7 C 16,4 C 17,2 C 17,2 C 0,0 C 64 % 73 % 0 % 1016,7 hPa 0,0 l/m 3,4 km/h (1 Bft) W 270 0 min 0,0 UV-I 10,3 C 17,2 C 3,2 km/h (1 Bft)
28.06.2013 19:45 17,1 C 22,7 C 16,4 C 17,2 C 17,2 C 0,1 C 64 % 74 % 3 % 1016,7 hPa 0,0 l/m 3,2 km/h (1 Bft) S 180 0 min 0,0 UV-I 10,2 C 17,2 C 2,6 km/h (1 Bft)
28.06.2013 19:50 17,1 C 22,7 C 16,4 C 17,3 C 17,3 C 0,2 C 65 % 74 % 5 % 1016,7 hPa 0,0 l/m 3,1 km/h (1 Bft) SW 225 0 min 0,0 UV-I 10,5 C 17,3 C 5,0 km/h (1 Bft)
28.06.2013 19:55 17,1 C 22,7 C 16,3 C 17,3 C 17,3 C 0,2 C 64 % 74 % 5 % 1016,8 hPa 0,0 l/m 3,4 km/h (1 Bft) SW 225 0 min 0,0 UV-I 10,2 C 17,3 C 4,2 km/h (1 Bft)
28.06.2013 20:00 17,0 C 22,7 C 16,3 C 17,2 C 17,2 C 0,2 C 65 % 74 % 5 % 1016,8 hPa 0,0 l/m 3,1 km/h (1 Bft) W-SW 247 0 min 0,0 UV-I 10,4 C 17,2 C 2,7 km/h (1 Bft)
28.06.2013 20:05 16,9 C 22,7 C 16,3 C 17,1 C 17,1 C 0,2 C 65 % 74 % 5 % 1016,8 hPa 0,0 l/m 2,4 km/h (1 Bft) S 180 0 min 0,0 UV-I 10,3 C 17,1 C 3,2 km/h (1 Bft)
28.06.2013 20:10 16,8 C 22,7 C 16,1 C 17,1 C 17,1 C 0,3 C 65 % 75 % 8 % 1016,8 hPa 0,0 l/m 2,1 km/h (1 Bft) W 270 0 min 0,0 UV-I 10,2 C 17,1 C 1,8 km/h (1 Bft)
28.06.2013 20:15 16,8 C 22,7 C 16,0 C 16,9 C 16,9 C 0,1 C 66 % 75 % 3 % 1016,7 hPa 0,0 l/m 1,6 km/h (1 Bft) W 270 0 min 0,0 UV-I 10,4 C 16,9 C 0,0 km/h (0 Bft)
28.06.2013 20:20 16,8 C 22,7 C 15,9 C 16,7 C 16,6 C 0,0 C 67 % 76 % 0 % 1016,7 hPa 0,0 l/m 0,5 km/h (0 Bft) S-SW 202 0 min 0,0 UV-I 10,6 C 16,6 C 0,0 km/h (0 Bft)
28.06.2013 20:25 16,7 C 22,8 C 15,8 C 16,5 C 16,2 C 0,0 C 67 % 76 % 0 % 1016,7 hPa 0,0 l/m 0,0 km/h (0 Bft) S-SW 202 0 min 0,0 UV-I 10,5 C 16,2 C 0,0 km/h (0 Bft)
28.06.2013 20:30 16,5 C 22,8 C 15,6 C 16,3 C 15,8 C 0,0 C 68 % 76 % 0 % 1016,7 hPa 0,0 l/m 0,0 km/h (0 Bft) O 90 0 min 0,0 UV-I 10,6 C 15,8 C 0,0 km/h (0 Bft)
28.06.2013 20:35 16,3 C 22,8 C 15,5 C 16,0 C 15,5 C 0,0 C 68 % 77 % 0 % 1016,8 hPa 0,0 l/m 0,0 km/h (0 Bft) W-SW 247 0 min 0,0 UV-I 10,4 C 15,5 C 2,6 km/h (1 Bft)
28.06.2013 20:40 16,0 C 22,8 C 15,3 C 15,8 C 15,3 C 0,0 C 69 % 77 % 0 % 1016,8 hPa 0,0 l/m 0,0 km/h (0 Bft) O 90 0 min 0,0 UV-I 10,3 C 15,3 C 0,0 km/h (0 Bft)
28.06.2013 20:45 15,9 C 22,8 C 15,3 C 15,7 C 15,2 C 0,0 C 70 % 77 % 0 % 1016,8 hPa 0,0 l/m 0,0 km/h (0 Bft) S-SO 157 0 min 0,0 UV-I 10,4 C 15,2 C 0,0 km/h (0 Bft)
28.06.2013 20:50 15,8 C 22,8 C 15,1 C 15,5 C 15,0 C 0,0 C 70 % 78 % 0 % 1016,8 hPa 0,0 l/m 0,0 km/h (0 Bft) S-SO 157 0 min 0,0 UV-I 10,3 C 15,0 C 0,0 km/h (0 Bft)
28.06.2013 20:55 15,6 C 22,8 C 15,1 C 15,4 C 15,0 C 0,0 C 70 % 78 % 0 % 1016,8 hPa 0,0 l/m 0,0 km/h (0 Bft) NW 315 0 min 0,0 UV-I 10,1 C 15,0 C 0,0 km/h (0 Bft)
28.06.2013 21:00 15,5 C 22,8 C 15,1 C 15,3 C 14,9 C 0,0 C 71 % 78 % 0 % 1016,8 hPa 0,0 l/m 0,0 km/h (0 Bft) S 180 0 min 0,0 UV-I 10,3 C 14,9 C 0,0 km/h (0 Bft)
28.06.2013 21:05 15,5 C 22,8 C 15,1 C 15,3 C 14,9 C 0,0 C 72 % 78 % 0 % 1016,8 hPa 0,0 l/m 0,0 km/h (0 Bft) W 270 0 min 0,0 UV-I 10,5 C 14,9 C 0,0 km/h (0 Bft)
28.06.2013 21:10 15,3 C 22,8 C 14,9 C 15,1 C 14,7 C 0,0 C 73 % 79 % 0 % 1016,8 hPa 0,0 l/m 0,0 km/h (0 Bft) O-SO 112 0 min 0,0 UV-I 10,5 C 14,7 C 0,0 km/h (0 Bft)
28.06.2013 21:15 15,2 C 22,8 C 14,8 C 15,0 C 14,7 C 0,0 C 73 % 79 % 0 % 1017,0 hPa 0,0 l/m 0,0 km/h (0 Bft) O-SO 112 0 min 0,0 UV-I 10,4 C 14,7 C 0,0 km/h (0 Bft)
28.06.2013 21:20 15,1 C 22,8 C 14,9 C 14,9 C 14,5 C 0,0 C 73 % 79 % 0 % 1017,0 hPa 0,0 l/m 0,0 km/h (0 Bft) O-SO 112 0 min 0,0 UV-I 10,3 C 14,5 C 0,0 km/h (0 Bft)
28.06.2013 21:25 15,1 C 22,8 C 14,7 C 14,9 C 14,4 C 0,0 C 73 % 79 % 0 % 1017,0 hPa 0,0 l/m 0,0 km/h (0 Bft) W-SW 247 0 min 0,0 UV-I 10,3 C 14,4 C 0,0 km/h (0 Bft)
28.06.2013 21:30 14,9 C 22,9 C 14,7 C 14,7 C 14,3 C 0,0 C 74 % 79 % 0 % 1017,0 hPa 0,0 l/m 0,0 km/h (0 Bft) SO 135 0 min 0,0 UV-I 10,3 C 14,3 C 0,0 km/h (0 Bft)
28.06.2013 21:35 14,8 C 22,8 C 14,5 C 14,6 C 14,2 C 0,0 C 74 % 79 % 0 % 1017,3 hPa 0,0 l/m 0,0 km/h (0 Bft) W-SW 247 0 min 0,0 UV-I 10,2 C 14,2 C 0,0 km/h (0 Bft)
28.06.2013 21:40 14,8 C 22,9 C 14,4 C 14,6 C 14,1 C 0,0 C 75 % 79 % 0 % 1017,3 hPa 0,0 l/m 0,0 km/h (0 Bft) W-SW 247 0 min 0,0 UV-I 10,4 C 14,1 C 0,0 km/h (0 Bft)
28.06.2013 21:45 14,7 C 22,8 C 14,5 C 14,5 C 14,1 C 0,0 C 75 % 79 % 0 % 1017,3 hPa 0,0 l/m 0,0 km/h (0 Bft) W-SW 247 0 min 0,0 UV-I 10,3 C 14,1 C 0,0 km/h (0 Bft)
28.06.2013 21:50 14,7 C 22,8 C 14,4 C 14,4 C 13,9 C 0,0 C 76 % 80 % 0 % 1017,3 hPa 0,0 l/m 0,0 km/h (0 Bft) O-SO 112 0 min 0,0 UV-I 10,5 C 13,9 C 0,0 km/h (0 Bft)
28.06.2013 21:55 14,6 C 22,8 C 14,3 C 14,4 C 13,9 C 0,0 C 76 % 80 % 0 % 1017,4 hPa 0,0 l/m 0,0 km/h (0 Bft) O-SO 112 0 min 0,0 UV-I 10,4 C 13,9 C 0,0 km/h (0 Bft)
28.06.2013 22:00 14,5 C 22,8 C 14,2 C 14,3 C 13,9 C 0,0 C 77 % 80 % 0 % 1017,4 hPa 0,0 l/m 0,0 km/h (0 Bft) O-SO 112 0 min 0,0 UV-I 10,5 C 13,9 C 0,0 km/h (0 Bft)
28.06.2013 22:05 14,4 C 22,8 C 14,2 C 14,2 C 13,9 C 0,0 C 77 % 80 % 0 % 1017,4 hPa 0,0 l/m 0,0 km/h (0 Bft) SW 225 0 min 0,0 UV-I 10,4 C 13,9 C 0,0 km/h (0 Bft)
28.06.2013 22:10 14,4 C 22,8 C 14,3 C 14,2 C 13,8 C 0,0 C 78 % 80 % 0 % 1017,4 hPa 0,0 l/m 0,0 km/h (0 Bft) W-SW 247 0 min 0,0 UV-I 10,6 C 13,8 C 0,0 km/h (0 Bft)
28.06.2013 22:15 14,5 C 22,9 C 14,1 C 14,3 C 13,8 C 0,0 C 78 % 80 % 0 % 1017,4 hPa 0,0 l/m 0,0 km/h (0 Bft) W 270 0 min 0,0 UV-I 10,7 C 13,8 C 0,0 km/h (0 Bft)
28.06.2013 22:20 14,4 C 22,9 C 14,1 C 14,2 C 13,8 C 0,0 C 79 % 81 % 0 % 1017,4 hPa 0,0 l/m 0,0 km/h (0 Bft) W-SW 247 0 min 0,0 UV-I 10,8 C 13,8 C 0,0 km/h (0 Bft)
28.06.2013 22:25 14,3 C 23,0 C 14,0 C 14,1 C 13,7 C 0,0 C 79 % 81 % 0 % 1017,4 hPa 0,0 l/m 0,0 km/h (0 Bft) W-SW 247 0 min 0,0 UV-I 10,7 C 13,7 C 0,0 km/h (0 Bft)
28.06.2013 22:30 14,3 C 23,0 C 14,1 C 14,1 C 13,7 C 0,0 C 79 % 81 % 0 % 1017,4 hPa 0,0 l/m 0,0 km/h (0 Bft) SW 225 0 min 0,0 UV-I 10,7 C 13,7 C 0,0 km/h (0 Bft)
28.06.2013 22:35 14,2 C 23,0 C 14,0 C 14,0 C 13,7 C 0,0 C 79 % 81 % 0 % 1017,3 hPa 0,0 l/m 0,0 km/h (0 Bft) NW 315 0 min 0,0 UV-I 10,6 C 13,7 C 0,0 km/h (0 Bft)
28.06.2013 22:40 14,3 C 23,0 C 14,0 C 14,1 C 13,6 C 0,0 C 80 % 81 % 0 % 1017,3 hPa 0,0 l/m 0,0 km/h (0 Bft) SW 225 0 min 0,0 UV-I 10,9 C 13,6 C 0,0 km/h (0 Bft)
28.06.2013 22:45 14,3 C 23,0 C 13,9 C 14,1 C 13,6 C 0,0 C 80 % 81 % 0 % 1017,3 hPa 0,0 l/m 0,0 km/h (0 Bft) W-SW 247 0 min 0,0 UV-I 10,9 C 13,6 C 0,0 km/h (0 Bft)
28.06.2013 22:50 14,1 C 23,0 C 13,9 C 13,9 C 13,5 C 0,0 C 80 % 81 % 0 % 1017,3 hPa 0,0 l/m 0,0 km/h (0 Bft) W 270 0 min 0,0 UV-I 10,7 C 13,5 C 0,0 km/h (0 Bft)
28.06.2013 22:55 14,1 C 23,0 C 13,9 C 13,9 C 13,5 C 0,0 C 81 % 81 % 0 % 1017,3 hPa 0,0 l/m 0,0 km/h (0 Bft) NO 45 0 min 0,0 UV-I 10,9 C 13,5 C 0,0 km/h (0 Bft)
28.06.2013 23:00 14,1 C 23,0 C 13,9 C 13,9 C 13,5 C 0,0 C 81 % 82 % 0 % 1017,3 hPa 0,0 l/m 0,0 km/h (0 Bft) O-NO 67 0 min 0,0 UV-I 10,9 C 13,5 C 0,0 km/h (0 Bft)
28.06.2013 23:05 14,0 C 23,0 C 13,9 C 13,8 C 13,4 C 0,0 C 81 % 82 % 0 % 1017,3 hPa 0,0 l/m 0,0 km/h (0 Bft) O-NO 67 0 min 0,0 UV-I 10,8 C 13,4 C 0,0 km/h (0 Bft)
28.06.2013 23:10 13,9 C 23,0 C 13,7 C 13,7 C 13,4 C 0,0 C 81 % 82 % 0 % 1017,3 hPa 0,0 l/m 0,0 km/h (0 Bft) O-NO 67 0 min 0,0 UV-I 10,7 C 13,4 C 0,0 km/h (0 Bft)
28.06.2013 23:15 13,8 C 23,0 C 13,7 C 13,7 C 13,4 C 0,0 C 81 % 82 % 0 % 1017,4 hPa 0,0 l/m 0,0 km/h (0 Bft) O-NO 67 0 min 0,0 UV-I 10,6 C 13,4 C 0,0 km/h (0 Bft)
28.06.2013 23:20 13,8 C 23,0 C 13,7 C 13,6 C 13,3 C 0,0 C 82 % 82 % 0 % 1017,4 hPa 0,0 l/m 0,0 km/h (0 Bft) N-NO 22 0 min 0,0 UV-I 10,8 C 13,3 C 0,0 km/h (0 Bft)
28.06.2013 23:25 13,7 C 23,0 C 13,7 C 13,6 C 13,3 C 0,0 C 82 % 82 % 0 % 1017,4 hPa 0,0 l/m 0,0 km/h (0 Bft) N-NO 22 0 min 0,0 UV-I 10,7 C 13,3 C 0,0 km/h (0 Bft)
28.06.2013 23:30 13,7 C 23,0 C 13,7 C 13,6 C 13,3 C 0,0 C 82 % 82 % 0 % 1017,4 hPa 0,0 l/m 0,0 km/h (0 Bft) NO 45 0 min 0,0 UV-I 10,7 C 13,3 C 0,0 km/h (0 Bft)
28.06.2013 23:35 13,6 C 23,0 C 13,7 C 13,5 C 13,2 C 0,0 C 82 % 82 % 0 % 1017,2 hPa 0,0 l/m 0,0 km/h (0 Bft) O-NO 67 0 min 0,0 UV-I 10,6 C 13,2 C 0,0 km/h (0 Bft)
28.06.2013 23:40 13,6 C 23,0 C 13,6 C 13,4 C 13,1 C 0,0 C 82 % 82 % 0 % 1017,2 hPa 0,0 l/m 0,0 km/h (0 Bft) N-NO 22 0 min 0,0 UV-I 10,6 C 13,1 C 0,0 km/h (0 Bft)
28.06.2013 23:45 13,5 C 23,0 C 13,6 C 13,4 C 13,1 C 0,0 C 82 % 82 % 0 % 1017,2 hPa 0,0 l/m 0,0 km/h (0 Bft) N-NO 22 0 min 0,0 UV-I 10,5 C 13,1 C 0,0 km/h (0 Bft)
28.06.2013 23:50 13,5 C 23,0 C 13,6 C 13,4 C 13,1 C 0,0 C 82 % 82 % 0 % 1017,2 hPa 0,0 l/m 0,0 km/h (0 Bft) NW 315 0 min 0,0 UV-I 10,5 C 13,1 C 0,0 km/h (0 Bft)
28.06.2013 23:55 13,5 C 23,1 C 13,6 C 13,4 C 13,1 C 0,0 C 82 % 82 % 0 % 1017,2 hPa 0,0 l/m 0,0 km/h (0 Bft) N 360 0 min 0,0 UV-I 10,5 C 13,1 C 0,0 km/h (0 Bft)
_ Min-Zeit 04:50 09:50 05:00 03:20 02:50 01:25 15:05 16:10 00:00 18:15 - 00:00 - - - 00:00 03:30 02:50 00:00
Minimum _ 7,5 C 21,5 C 9,3 C 7,8 C 7,8 C 0,0 C 51 % 65 % 0 % 1015,9 hPa - 0,0 km/h (0 Bft) - - - 0,0 UV-I 5,7 C 7,8 C 0,0 km/h (0 Bft)
_ Max-Zeit 14:55 23:55 15:05 14:55 14:55 08:50 07:30 05:10 08:05 00:15 00:00 15:30 - - 05:15 07:30 12:20 14:55 19:00
Maximum _ 21,9 C 23,1 C 19,4 C 26,7 C 26,7 C 8,3 C 92 % 87 % 100 % 1020,1 hPa 0,0 l/m 5,8 km/h
S-SW (2 Bft)
- - 5 min 0,6 UV-I 12,1 C 26,7 C 19,3 km/h
W-SW (3 Bft)
Durchschnitt _ 14,4 C 22,3 C 14,2 C 16,4 C 16,3 C 2,1 C 74 % 79 % 43 % 1017,8 hPa #0,0 l/m 1,5 km/h (1 Bft) W-SW - #7:55 h 0,3 UV-I 9,5 C 16,3 C 2,3 km/h (1 Bft)
2013 www.wetterstation-wechselburg.de